Current | Forecast
Updated: 10:00 AM JST on May 22, 2018
Observed at Takamatsu Airport, Japan
Temperature 70°F
Humidity 53%
Dew Point 52°F
Wind ENE at 14 mph
Pressure 30.04 in (Falling)
Conditions Partly Cloudy
Visibility 6.2 miles
UV 10 out of 16
Clouds (FEW) : 3000 ft
Yesterday's Maximum 77°F
Yesterday's Minimum 59°F approx.
Yesterday's Cooling Degree Days 3 approx.
Sunrise4:56 AM JST
Sunset7:02 PM JST
Moon Rise11:40 AM JST
Moon Set12:32 AM JST
Moon PhaseMoon Phase
Waxing Crescent
Raw METARMETAR RJOT 220100Z 06012KT 9999 FEW030 SCT/// 21/11 Q1017


Monday
. High: 73° F.
Tuesday
. High: 77° F.
Wednesday
. High: 71° F.
Thursday
. High: 75° F.
Friday
. High: 78° F.
Saturday
. High: 78° F.
Sunday
. High: 75° F.
Monday
. High: 77° F.

Units: English | Metric

Find the Weather for any City, State or Zipcode, or Country:

U.S. State List | Severe Weather | Tropical Storms | Ski Conditions
United States | Canada | Central America | South America | Asia | Europe | Australia | Africa | Islands

Weather Underground

© Copyright 2018
The Weather Company, LLC